Time;durP1;ratioP1;P1;durP2;ratioP2;P2;SDS_P1;SDS_P2;PMS_P1;PMS_P2;Temp;Humidity;BMP_temperature;BMP_pressure;BME280_temperature;BME280_humidity;BME280_pressure;Samples;Min_cycle;Max_cycle;Signal;HPM_P1;HPM_P2
2022/05/29 00:00:13;;;;;;;0.60;0.50;;;5.80;1.40;;;6.49;100.00;95106.55;649615;212;36936;-75
2022/05/29 00:02:54;;;;;;;0.40;0.35;;;5.80;1.40;;;6.47;100.00;95104.46;644942;216;31422;-75
2022/05/29 00:05:37;;;;;;;0.40;0.20;;;5.70;1.40;;;6.49;100.00;95102.88;645602;216;42169;-75
2022/05/29 00:08:28;;;;;;;0.50;0.30;;;5.70;1.40;;;6.42;100.00;95099.56;644809;216;31529;-75
2022/05/29 00:11:09;;;;;;;1.20;0.90;;;5.80;1.40;;;6.38;100.00;95094.55;644553;212;31487;-75
2022/05/29 00:13:51;;;;;;;0.70;0.47;;;5.70;1.40;;;6.35;100.00;95095.30;647308;216;32045;-75
2022/05/29 00:16:36;;;;;;;0.40;0.30;;;5.60;1.40;;;6.30;100.00;95091.87;648484;216;31488;-75
2022/05/29 00:19:17;;;;;;;6.00;0.80;;;5.60;1.40;;;6.25;100.00;95090.47;648103;212;42276;-75
2022/05/29 00:24:34;;;;;;;0.80;0.50;;;5.50;1.40;;;6.13;100.00;95078.47;646311;212;31489;-75
2022/05/29 00:27:17;;;;;;;1.00;0.40;;;5.40;1.40;;;6.17;100.00;95078.66;645676;216;42154;-80
2022/05/29 00:30:01;;;;;;;0.40;0.20;;;5.40;1.40;;;6.03;100.00;95071.95;647067;216;31496;-75
2022/05/29 00:32:43;;;;;;;0.40;0.20;;;5.20;1.40;;;5.95;100.00;95070.66;650600;216;32135;-75
2022/05/29 00:35:51;;;;;;;0.70;0.30;;;5.00;1.40;;;5.83;100.00;95071.78;646585;216;31480;-75
2022/05/29 00:38:39;;;;;;;0.40;0.20;;;4.90;1.40;;;5.79;100.00;95064.34;620689;222;31801;-78
2022/05/29 00:41:39;;;;;;;0.57;0.47;;;4.90;1.40;;;5.69;100.00;95062.95;648155;212;31709;-75
2022/05/29 00:44:25;;;;;;;0.40;0.30;;;4.80;1.40;;;5.71;100.00;95064.48;645169;216;31490;-75
2022/05/29 00:47:13;;;;;;;0.40;0.40;;;4.80;1.40;;;5.63;100.00;95059.45;648896;216;42962;-75
2022/05/29 00:49:55;;;;;;;0.40;0.30;;;4.80;1.40;;;5.56;100.00;95057.07;646634;216;31614;-75
2022/05/29 00:52:36;;;;;;;0.40;0.30;;;4.70;1.40;;;5.54;100.00;95048.00;649202;216;31495;-74
2022/05/29 00:55:24;;;;;;;0.47;0.47;;;4.80;1.40;;;5.57;100.00;95042.12;645200;216;31580;-75
2022/05/29 00:58:05;;;;;;;0.40;0.40;;;4.80;1.40;;;5.56;100.00;95038.63;647962;216;31533;-75
2022/05/29 01:00:49;;;;;;;1.10;0.75;;;4.70;1.40;;;5.57;100.00;95032.37;649961;212;31616;-76
2022/05/29 01:03:29;;;;;;;0.40;0.30;;;4.70;1.40;;;5.66;100.00;95024.63;649225;216;31480;-74
2022/05/29 01:06:10;;;;;;;0.40;0.30;;;4.70;1.40;;;5.60;100.00;95022.38;646134;216;31625;-74
2022/05/29 01:08:52;;;;;;;2.40;0.60;;;4.60;1.40;;;5.43;100.00;95018.91;644511;212;31788;-74
2022/05/29 01:11:44;;;;;;;0.40;0.30;;;4.50;1.40;;;5.30;100.00;95010.07;645542;216;31653;-74
2022/05/29 01:14:28;;;;;;;0.40;0.20;;;4.50;1.40;;;5.33;100.00;95004.98;645794;212;31546;-74
2022/05/29 01:17:28;;;;;;;5.20;0.70;;;4.60;1.40;;;5.29;100.00;95001.21;646498;216;31507;-74
2022/05/29 01:20:31;;;;;;;0.80;0.60;;;4.50;1.40;;;5.31;100.00;94995.23;647460;212;31842;-75
2022/05/29 01:23:29;;;;;;;1.40;0.43;;;4.60;1.40;;;5.36;100.00;94984.48;647961;216;31649;-75
2022/05/29 01:27:01;;;;;;;0.40;0.40;;;4.60;1.40;;;5.35;100.00;94981.97;649240;216;31611;-75
2022/05/29 01:30:13;;;;;;;0.40;0.20;;;4.70;1.40;;;5.40;100.00;94971.36;645663;212;31503;-75
2022/05/29 01:35:57;;;;;;;0.50;0.40;;;4.70;1.40;;;5.34;100.00;94965.74;652765;212;31476;-74
2022/05/29 01:38:42;;;;;;;2.00;0.70;;;4.50;1.40;;;5.28;100.00;94966.23;650340;216;32097;-74
2022/05/29 01:41:24;;;;;;;0.40;0.40;;;4.40;1.40;;;5.28;100.00;94959.35;649771;216;31670;-75
2022/05/29 01:44:11;;;;;;;0.60;0.50;;;4.40;1.40;;;5.25;100.00;94950.95;647061;216;31490;-75
2022/05/29 01:46:53;;;;;;;0.40;0.30;;;4.50;1.40;;;5.21;100.00;94945.55;617506;226;31949;-75
2022/05/29 01:49:34;;;;;;;0.40;0.30;;;4.50;1.40;;;5.23;100.00;94945.59;648141;216;32314;-75
2022/05/29 01:52:17;;;;;;;0.50;0.50;;;4.50;1.40;;;5.23;100.00;94937.48;631589;222;31764;-75
2022/05/29 01:55:20;;;;;;;1.25;0.62;;;4.40;1.40;;;5.16;100.00;94937.41;647562;216;32071;-75
2022/05/29 01:58:02;;;;;;;1.10;0.68;;;4.30;1.40;;;5.06;100.00;94929.33;648610;216;31506;-75
2022/05/29 02:00:50;;;;;;;0.70;0.40;;;4.30;1.40;;;5.00;100.00;94926.99;649457;216;31534;-77
2022/05/29 02:03:38;;;;;;;0.40;0.37;;;4.30;1.40;;;4.93;100.00;94920.82;649570;216;31483;-75
2022/05/29 02:07:47;;;;;;;0.50;0.40;;;4.10;1.40;;;4.95;100.00;94912.85;648479;212;31506;-77
2022/05/29 02:09:12;;;;;;;0.40;0.30;;;4.30;1.40;;;4.93;100.00;94907.08;642144;216;31659;-74
2022/05/29 02:11:58;;;;;;;0.40;0.30;;;4.30;1.40;;;4.84;100.00;94902.85;623098;226;31980;-75
2022/05/29 02:14:40;;;;;;;1.05;0.43;;;4.10;1.40;;;4.79;100.00;94896.00;622773;225;31831;-77
2022/05/29 02:17:28;;;;;;;0.60;0.30;;;4.00;1.40;;;4.71;100.00;94895.36;643355;212;31542;-75
2022/05/29 02:22:50;;;;;;;0.40;0.20;;;3.80;1.40;;;4.69;100.00;94877.39;648483;212;31489;-75
2022/05/29 02:25:32;;;;;;;0.40;0.30;;;3.80;1.40;;;4.63;100.00;94874.30;647053;216;31525;-75
2022/05/29 02:28:14;;;;;;;0.50;0.40;;;3.70;1.40;;;4.62;100.00;94874.41;647053;216;31492;-75
2022/05/29 02:31:35;;;;;;;0.50;0.50;;;3.70;1.40;;;4.68;100.00;94873.27;646993;216;42215;-75
2022/05/29 02:35:51;;;;;;;0.40;0.30;;;4.00;1.40;;;4.67;100.00;94868.07;646781;216;31694;-75
2022/05/29 02:38:33;;;;;;;0.40;0.30;;;3.90;1.40;;;4.67;100.00;94869.30;652358;216;31495;-75
2022/05/29 02:41:33;;;;;;;0.40;0.22;;;3.90;1.40;;;4.69;100.00;94864.02;645581;212;31510;-75
2022/05/29 02:44:24;;;;;;;0.40;0.30;;;4.10;1.40;;;4.61;100.00;94856.55;617952;226;31845;-75
2022/05/29 02:47:15;;;;;;;0.40;0.30;;;3.90;1.40;;;4.59;100.00;94851.30;647022;216;31525;-75
2022/05/29 02:50:18;;;;;;;0.40;0.30;;;3.80;1.40;;;4.57;100.00;94849.02;647467;212;31493;-75
2022/05/29 02:52:58;;;;;;;0.90;0.68;;;3.90;1.40;;;4.53;100.00;94849.37;647352;212;31565;-75
2022/05/29 02:55:40;;;;;;;0.47;0.47;;;3.90;1.40;;;4.58;100.00;94849.44;648903;216;31479;-76
2022/05/29 02:58:24;;;;;;;0.40;0.20;;;4.00;1.40;;;4.65;100.00;94849.94;645349;216;31497;-74
2022/05/29 03:01:13;;;;;;;1.20;0.40;;;4.00;1.40;;;4.63;100.00;94846.60;649690;216;31486;-75
2022/05/29 03:04:14;;;;;;;1.10;0.50;;;3.90;1.40;;;4.63;100.00;94842.41;652080;216;31692;-75
2022/05/29 03:07:05;;;;;;;0.50;0.30;;;3.90;1.40;;;4.71;100.00;94841.83;645345;212;31802;-75
2022/05/29 03:12:39;;;;;;;0.40;0.40;;;3.80;1.40;;;4.55;100.00;94845.70;628892;222;31718;-75
2022/05/29 03:15:36;;;;;;;0.50;0.50;;;3.70;1.40;;;4.32;100.00;94844.62;647305;212;32028;-75
2022/05/29 03:18:30;;;;;;;0.40;0.30;;;3.40;1.40;;;4.06;100.00;94844.55;617529;226;31821;-79
2022/05/29 03:21:43;;;;;;;0.60;0.50;;;3.30;1.40;;;4.25;100.00;94844.75;650170;216;31513;-75
2022/05/29 03:24:29;;;;;;;0.40;0.30;;;3.40;1.40;;;4.46;100.00;94846.77;647532;212;31804;-74
2022/05/29 03:27:30;;;;;;;0.40;0.30;;;3.40;1.40;;;4.23;100.00;94844.02;643609;219;31642;-77
2022/05/29 03:30:21;;;;;;;0.40;0.30;;;3.30;1.40;;;4.20;100.00;94843.62;648681;212;31618;-75
2022/05/29 03:33:04;;;;;;;0.40;0.30;;;3.20;1.40;;;4.08;100.00;94839.65;644384;212;31904;-76
2022/05/29 03:38:42;;;;;;;0.80;0.40;;;3.30;1.40;;;4.15;100.00;94837.59;649599;216;31571;-76
2022/05/29 03:41:29;;;;;;;0.40;0.40;;;3.30;1.40;;;4.10;100.00;94833.70;651546;212;31485;-75
2022/05/29 03:44:11;;;;;;;0.40;0.30;;;3.20;1.40;;;4.14;100.00;94841.08;648730;216;31509;-75
2022/05/29 03:46:52;;;;;;;0.40;0.30;;;3.20;1.40;;;4.08;100.00;94835.04;646690;216;31507;-76
2022/05/29 03:49:35;;;;;;;0.40;0.30;;;3.20;1.40;;;4.16;100.00;94833.83;648449;216;31449;-75
2022/05/29 03:52:16;;;;;;;0.50;0.50;;;3.30;1.40;;;4.26;100.00;94833.91;623275;225;31879;-75
2022/05/29 03:54:58;;;;;;;0.40;0.40;;;3.40;1.40;;;4.44;100.00;94826.72;648806;212;31491;-75
2022/05/29 03:57:42;;;;;;;0.43;0.43;;;3.50;1.40;;;4.55;100.00;94822.67;644722;216;31528;-78
2022/05/29 04:00:23;;;;;;;0.40;0.40;;;3.60;1.40;;;4.51;100.00;94821.26;645825;216;31492;-79
2022/05/29 04:03:11;;;;;;;0.40;0.30;;;3.50;1.40;;;4.41;100.00;94809.77;647718;216;31550;-76
2022/05/29 04:05:52;;;;;;;0.40;0.30;;;3.50;1.40;;;4.44;100.00;94819.63;652170;216;31691;-76
2022/05/29 04:14:24;;;;;;;0.50;0.40;;;3.90;1.40;;;4.68;100.00;94826.08;645767;213;31474;-76
2022/05/29 04:17:12;;;;;;;1.00;0.40;;;4.00;1.40;;;4.74;100.00;94819.89;645111;216;32039;-79
2022/05/29 04:19:54;;;;;;;0.40;0.30;;;4.00;1.40;;;4.86;100.00;94811.80;622967;225;32171;-79
2022/05/29 04:25:16;;;;;;;0.40;0.30;;;4.20;1.40;;;5.23;100.00;94808.66;649824;216;31512;-76
2022/05/29 04:28:07;;;;;;;0.40;0.30;;;4.50;1.40;;;5.38;100.00;94802.63;646774;212;31504;-80
2022/05/29 04:30:48;;;;;;;0.40;0.40;;;4.60;1.40;;;5.26;100.00;94802.59;650484;216;31600;-76
2022/05/29 04:35:51;;;;;;;0.90;0.50;;;4.40;1.40;;;5.42;100.00;94796.52;621627;226;31814;-75
2022/05/29 04:38:33;;;;;;;0.50;0.50;;;4.50;1.40;;;5.46;100.00;94798.30;645613;216;31489;-75
2022/05/29 04:41:24;;;;;;;0.40;0.40;;;4.50;1.40;;;5.50;100.00;94787.92;632700;217;31641;-75
2022/05/29 04:43:59;;;;;;;0.60;0.40;;;4.60;1.40;;;5.72;100.00;94789.00;645416;212;31574;-75
2022/05/29 04:46:41;;;;;;;0.50;0.40;;;4.90;1.40;;;5.83;100.00;94791.12;646664;216;32014;-75
2022/05/29 04:49:29;;;;;;;0.70;0.50;;;5.10;1.40;;;5.93;100.00;94794.94;653393;216;31690;-79
2022/05/29 04:52:11;;;;;;;0.90;0.30;;;5.30;1.40;;;5.93;100.00;94797.90;626116;220;31526;-77
2022/05/29 04:54:58;;;;;;;1.00;1.00;;;5.30;1.40;;;5.97;100.00;94791.41;644487;216;31778;-75
2022/05/29 04:57:47;;;;;;;0.77;0.50;;;5.30;1.40;;;6.10;100.00;94794.87;646386;216;31499;-77
2022/05/29 05:03:08;;;;;;;0.60;0.50;;;5.50;1.40;;;6.35;100.00;94801.11;646708;212;31600;-75
2022/05/29 05:05:50;;;;;;;0.40;0.30;;;5.60;1.40;;;6.62;100.00;94805.75;644996;212;31925;-75
2022/05/29 05:08:38;;;;;;;0.40;0.40;;;5.90;1.40;;;6.92;100.00;94807.70;633054;215;31782;-80
2022/05/29 05:11:26;;;;;;;0.60;0.50;;;6.10;1.40;;;7.07;100.00;94812.41;646505;216;42128;-75
2022/05/29 05:14:14;;;;;;;1.60;0.90;;;6.30;1.40;;;7.38;100.00;94817.23;646208;212;31595;-77
2022/05/29 05:17:02;;;;;;;0.60;0.60;;;6.50;1.40;;;7.52;100.00;94818.59;645502;216;42812;-75
2022/05/29 05:19:47;;;;;;;0.50;0.50;;;6.70;1.40;;;7.58;100.00;94823.48;646010;216;31574;-75
2022/05/29 05:22:35;;;;;;;1.00;0.50;;;6.80;1.40;;;7.86;100.00;94826.35;648684;216;42133;-79
2022/05/29 05:25:22;;;;;;;0.70;0.60;;;7.00;1.40;;;8.24;100.00;94829.74;617596;222;31991;-75
2022/05/29 05:28:04;;;;;;;0.80;0.80;;;7.20;1.40;;;8.12;100.00;94831.05;648147;216;31507;-74
2022/05/29 05:30:47;;;;;;;3.80;1.40;;;7.20;1.40;;;8.13;100.00;94834.86;646393;216;40742;-75
2022/05/29 05:35:51;;;;;;;0.85;0.70;;;7.30;1.40;;;8.23;100.00;94831.31;651067;216;43039;-76
2022/05/29 05:38:32;;;;;;;1.20;1.00;;;7.40;1.40;;;8.40;100.00;94829.15;648157;216;31514;-75
2022/05/29 05:41:14;;;;;;;2.80;1.10;;;7.50;1.40;;;8.54;100.00;94833.18;644658;216;31801;-75
2022/05/29 05:46:30;;;;;;;1.05;1.05;;;7.80;1.40;;;8.67;100.00;94835.60;643399;216;31523;-74
2022/05/29 05:49:12;;;;;;;1.20;1.10;;;7.70;1.40;;;8.70;100.00;94836.50;648577;216;31516;-74
2022/05/29 05:51:55;;;;;;;2.80;1.07;;;7.70;1.40;;;8.86;100.00;94827.53;647431;216;31513;-75
2022/05/29 05:54:37;;;;;;;1.50;1.00;;;7.90;1.40;;;9.08;100.00;94830.84;648036;212;31561;-74
2022/05/29 05:57:19;;;;;;;0.70;0.70;;;7.90;1.40;;;9.10;100.00;94828.91;652634;212;31617;-75
2022/05/29 06:00:01;;;;;;;1.30;1.10;;;8.00;1.40;;;9.05;100.00;94824.43;651817;216;31601;-75
2022/05/29 06:02:42;;;;;;;0.60;0.60;;;8.00;1.40;;;9.31;100.00;94829.90;645996;215;31538;-74
2022/05/29 06:05:26;;;;;;;2.20;1.40;;;8.10;1.40;;;9.32;100.00;94826.84;648436;212;31792;-75
2022/05/29 06:08:09;;;;;;;0.80;0.80;;;8.10;1.40;;;9.48;100.00;94824.31;646848;212;31600;-75
2022/05/29 06:10:50;;;;;;;1.40;0.83;;;8.30;1.40;;;9.71;100.00;94822.23;646510;216;31564;-74
2022/05/29 06:13:32;;;;;;;0.80;0.80;;;8.40;1.40;;;9.92;100.00;94826.22;653965;216;31989;-75
2022/05/29 06:16:14;;;;;;;1.80;0.70;;;8.60;1.40;;;10.02;100.00;94829.05;645674;212;31489;-76
2022/05/29 06:18:58;;;;;;;0.80;0.80;;;8.60;1.40;;;9.94;100.00;94836.55;646018;213;31510;-75
2022/05/29 06:21:40;;;;;;;1.40;0.90;;;8.60;1.40;;;10.01;100.00;94832.89;645849;212;31648;-75
2022/05/29 06:24:22;;;;;;;1.48;0.90;;;8.70;1.40;;;10.20;100.00;94837.38;646940;216;31520;-75
2022/05/29 06:27:04;;;;;;;1.50;1.20;;;8.90;1.40;;;10.52;100.00;94832.25;647120;212;31547;-76
2022/05/29 06:29:45;;;;;;;2.30;1.40;;;9.10;1.40;;;10.55;100.00;94830.31;649505;216;42143;-76
2022/05/29 06:32:27;;;;;;;1.90;1.20;;;9.00;1.40;;;10.67;100.00;94820.52;620137;226;32055;-75
2022/05/29 06:35:51;;;;;;;1.30;1.00;;;9.10;1.40;;;10.42;100.00;94817.05;644646;212;31786;-75
2022/05/29 06:38:33;;;;;;;1.33;1.20;;;9.00;1.40;;;10.07;100.00;94816.77;617869;226;31917;-76
2022/05/29 06:41:15;;;;;;;1.30;1.20;;;8.90;1.40;;;9.90;100.00;94814.14;647966;216;31549;-76
2022/05/29 06:43:56;;;;;;;1.10;1.00;;;8.80;1.40;;;10.03;100.00;94807.35;649842;216;31550;-76
2022/05/29 06:46:38;;;;;;;1.30;1.20;;;8.90;1.40;;;9.98;100.00;94800.20;648352;216;31538;-75
2022/05/29 06:49:23;;;;;;;1.30;1.10;;;8.90;1.40;;;9.83;100.00;94791.19;647451;216;31578;-76
2022/05/29 06:52:08;;;;;;;0.93;0.90;;;8.90;1.40;;;9.90;100.00;94790.69;646386;212;32295;-76
2022/05/29 06:54:49;;;;;;;0.90;0.77;;;9.10;1.40;;;10.15;100.00;94798.72;647771;212;31521;-75
2022/05/29 06:57:37;;;;;;;2.70;1.70;;;9.00;1.40;;;10.16;100.00;94803.63;650547;216;31894;-76
2022/05/29 07:08:50;;;;;;;1.80;1.10;;;10.20;1.40;;;11.13;100.00;94798.59;641991;216;31717;-80
2022/05/29 07:11:38;;;;;;;3.67;1.55;;;10.30;99.90;;;11.38;100.00;94808.88;646946;216;31521;-77
2022/05/29 07:14:20;;;;;;;1.20;1.10;;;10.60;1.40;;;11.38;100.00;94813.60;644660;212;31550;-76
2022/05/29 07:17:06;;;;;;;1.50;1.23;;;10.20;1.40;;;11.07;100.00;94817.56;649616;212;31596;-75
2022/05/29 07:19:49;;;;;;;2.62;1.00;;;9.90;1.40;;;11.30;100.00;94807.12;646981;212;31568;-76
2022/05/29 07:22:32;;;;;;;1.50;1.40;;;10.10;1.40;;;11.49;100.00;94805.69;651819;212;42503;-76
2022/05/29 07:25:12;;;;;;;2.60;1.20;;;10.30;1.40;;;11.76;100.00;94815.38;647432;216;42166;-75
2022/05/29 07:27:54;;;;;;;0.83;0.83;;;10.80;1.40;;;12.06;100.00;94822.15;645563;216;42165;-75
2022/05/29 07:30:37;;;;;;;1.73;1.50;;;11.00;1.40;;;12.24;100.00;94811.53;646616;212;42156;-76
2022/05/29 07:35:51;;;;;;;2.70;1.73;;;11.10;1.40;;;12.63;100.00;94811.84;647054;216;31852;-75
2022/05/29 07:38:33;;;;;;;2.37;1.10;;;11.50;1.40;;;12.25;100.00;94820.88;640895;218;31558;-75
2022/05/29 07:44:04;;;;;;;1.10;0.90;;;11.30;1.40;;;12.16;100.00;94813.70;644894;212;31597;-76
2022/05/29 07:46:49;;;;;;;1.23;1.10;;;11.20;1.40;;;12.00;100.00;94807.34;649769;216;32190;-75
2022/05/29 07:49:31;;;;;;;1.20;1.10;;;11.00;1.40;;;12.25;100.00;94818.14;618053;226;31858;-76
2022/05/29 07:52:13;;;;;;;1.33;0.90;;;11.40;1.40;;;12.70;100.00;94818.30;645151;216;42376;-76
2022/05/29 07:54:55;;;;;;;2.60;1.20;;;11.90;1.40;;;12.80;100.00;94810.92;648708;216;31999;-75
2022/05/29 07:57:37;;;;;;;1.50;1.10;;;11.80;1.40;;;12.39;100.00;94811.16;649678;212;31532;-76
2022/05/29 08:00:18;;;;;;;1.25;1.00;;;11.20;1.40;;;12.85;100.00;94813.81;645312;216;42303;-76
2022/05/29 08:03:03;;;;;;;3.30;0.80;;;11.90;1.40;;;12.91;100.00;94815.56;648929;216;31518;-76
2022/05/29 08:05:45;;;;;;;2.33;1.05;;;12.20;1.40;;;12.88;100.00;94810.95;646878;212;33211;-75
2022/05/29 08:08:29;;;;;;;3.12;0.80;;;12.00;1.40;;;13.00;100.00;94806.28;643432;216;31771;-76
2022/05/29 08:13:47;;;;;;;1.27;0.80;;;12.20;1.40;;;13.40;100.00;94799.04;644939;216;31542;-75
2022/05/29 08:16:28;;;;;;;1.20;0.77;;;12.50;1.40;;;13.98;100.00;94799.04;644985;216;33299;-76
2022/05/29 08:19:10;;;;;;;1.10;0.90;;;13.00;1.40;;;14.24;100.00;94802.98;648302;216;31788;-75
2022/05/29 08:21:52;;;;;;;1.05;0.90;;;13.30;1.40;;;14.53;100.00;94805.39;644766;212;38067;-76
2022/05/29 08:33:02;;;;;;;1.02;0.90;;;13.70;1.40;;;14.50;92.44;94802.96;646606;216;42234;-75
2022/05/29 08:35:53;;;;;;;1.00;0.85;;;13.50;1.40;;;15.16;92.55;94788.94;618785;222;32194;-75
2022/05/29 08:38:34;;;;;;;1.10;0.70;;;14.20;1.40;;;15.40;90.54;94787.92;645846;216;31530;-75
2022/05/29 08:44:13;;;;;;;0.80;0.70;;;14.90;99.90;;;15.59;84.80;94801.70;645463;216;31522;-77
2022/05/29 08:47:01;;;;;;;0.60;0.60;;;14.50;99.90;;;15.49;78.10;94800.63;651173;212;31498;-75
2022/05/29 08:49:40;;;;;;;1.58;0.98;;;14.30;99.90;;;15.46;77.15;94798.70;646552;216;31554;-75
2022/05/29 08:52:44;;;;;;;1.80;1.15;;;14.40;1.40;;;16.01;79.11;94801.47;647991;216;31521;-75
2022/05/29 08:55:30;;;;;;;1.00;0.70;;;15.10;1.40;;;15.89;78.98;94800.94;649092;216;31645;-75
2022/05/29 08:58:23;;;;;;;0.80;0.50;;;15.30;1.40;;;17.14;75.19;94792.20;651567;212;31579;-75
2022/05/29 09:01:14;;;;;;;2.95;0.90;;;16.20;1.40;;;17.35;78.43;94777.98;649031;212;42842;-76
2022/05/29 09:03:58;;;;;;;0.80;0.60;;;16.50;1.40;;;17.73;72.87;94768.62;649294;212;31526;-75
2022/05/29 09:06:46;;;;;;;1.70;0.70;;;16.80;1.40;;;18.28;69.30;94758.59;617894;222;31779;-76
2022/05/29 09:09:50;;;;;;;0.93;0.70;;;17.20;99.90;;;18.10;69.18;94764.24;638851;216;31642;-76
2022/05/29 09:12:32;;;;;;;1.33;0.70;;;16.30;1.40;;;16.94;70.56;94783.86;645796;212;31605;-77
2022/05/29 09:15:28;;;;;;;2.60;0.60;;;15.20;1.40;;;17.17;76.84;94780.63;647905;212;32042;-76
2022/05/29 09:18:12;;;;;;;0.88;0.75;;;14.90;1.40;;;16.88;76.74;94786.36;650738;212;31556;-76
2022/05/29 09:23:28;;;;;;;0.80;0.50;;;14.40;99.90;;;15.99;73.98;94785.02;649546;216;31510;-76
2022/05/29 09:26:09;;;;;;;0.80;0.70;;;14.10;1.40;;;15.12;75.09;94788.43;623036;226;32856;-76
2022/05/29 09:28:50;;;;;;;0.90;0.70;;;13.70;1.40;;;15.89;81.73;94787.98;645398;216;31472;-76
2022/05/29 09:31:32;;;;;;;3.10;0.90;;;13.90;1.40;;;15.63;76.92;94791.58;649171;216;31550;-76
2022/05/29 09:35:52;;;;;;;1.42;0.60;;;13.80;1.40;;;15.77;84.08;94797.00;644522;216;42154;-75
2022/05/29 09:41:34;;;;;;;1.40;0.90;;;13.50;1.40;;;14.77;100.00;94797.69;649718;216;31502;-75
2022/05/29 09:44:15;;;;;;;0.60;0.60;;;13.20;1.40;;;13.84;100.00;94801.64;649011;216;31467;-76
2022/05/29 09:49:40;;;;;;;0.93;0.60;;;12.80;1.40;;;13.33;100.00;94797.15;621364;226;31806;-76
2022/05/29 09:49:41;;;;;;;0.90;0.70;;;12.50;1.40;;;12.92;100.00;94806.72;646648;216;31492;-76
2022/05/29 09:52:25;;;;;;;2.50;0.73;;;12.20;1.40;;;12.71;100.00;94812.27;647594;212;31530;-76
2022/05/29 09:55:29;;;;;;;0.80;0.80;;;12.00;1.40;;;12.66;100.00;94812.48;645601;216;31486;-76
2022/05/29 09:58:09;;;;;;;0.80;0.75;;;11.90;1.40;;;12.43;100.00;94812.08;649935;212;31483;-76
2022/05/29 10:00:59;;;;;;;0.82;0.70;;;11.60;1.40;;;12.38;100.00;94809.11;644304;216;42138;-76
2022/05/29 10:06:28;;;;;;;1.27;0.60;;;11.30;1.40;;;11.78;100.00;94814.51;618945;226;32017;-76
2022/05/29 10:09:12;;;;;;;1.00;0.90;;;11.00;1.40;;;11.71;100.00;94821.16;641979;216;31644;-76
2022/05/29 10:11:55;;;;;;;0.70;0.50;;;10.90;1.40;;;11.58;100.00;94815.90;646289;212;31547;-77
2022/05/29 10:14:41;;;;;;;0.40;0.30;;;10.80;1.40;;;11.47;100.00;94813.11;646046;212;31491;-82
2022/05/29 10:17:37;;;;;;;0.70;0.40;;;10.70;1.40;;;11.07;100.00;94808.38;623902;226;31996;-82
2022/05/29 10:20:30;;;;;;;2.30;0.50;;;10.40;1.40;;;10.76;100.00;94816.59;649698;216;42157;-77
2022/05/29 10:23:11;;;;;;;0.90;0.50;;;10.20;1.40;;;10.57;100.00;94814.35;646374;216;42145;-77
2022/05/29 10:25:56;;;;;;;0.50;0.40;;;10.20;1.40;;;10.43;100.00;94812.42;647337;216;31624;-76
2022/05/29 10:28:37;;;;;;;0.90;0.50;;;9.90;1.40;;;10.13;100.00;94813.86;646848;216;31800;-76
2022/05/29 10:31:22;;;;;;;1.13;0.70;;;9.70;1.40;;;9.95;100.00;94815.66;644934;212;31507;-75
2022/05/29 10:35:51;;;;;;;0.57;0.57;;;9.30;1.40;;;9.53;100.00;94816.19;619598;222;31798;-76
2022/05/29 10:38:36;;;;;;;1.50;0.80;;;8.90;1.40;;;9.52;100.00;94814.59;649477;212;31545;-76
2022/05/29 10:41:17;;;;;;;0.90;0.60;;;8.70;1.40;;;9.54;100.00;94815.98;644698;216;31515;-76
2022/05/29 10:43:58;;;;;;;2.60;0.60;;;8.50;1.40;;;9.47;100.00;94814.11;645307;216;31466;-76
2022/05/29 10:46:44;;;;;;;0.70;0.57;;;8.80;1.40;;;9.54;100.00;94815.29;644427;214;31505;-75
2022/05/29 10:49:34;;;;;;;0.50;0.32;;;8.90;1.40;;;9.64;100.00;94816.47;620351;226;32528;-75
2022/05/29 10:52:32;;;;;;;0.50;0.50;;;9.10;1.40;;;9.64;100.00;94817.44;646164;212;31509;-76
2022/05/29 10:55:21;;;;;;;0.50;0.30;;;9.30;1.40;;;9.72;100.00;94815.67;646405;216;31626;-75
2022/05/29 10:58:30;;;;;;;0.67;0.67;;;9.30;1.40;;;9.86;100.00;94818.58;646758;216;32148;-76
2022/05/29 11:04:37;;;;;;;2.90;0.50;;;9.50;1.40;;;10.00;100.00;94817.96;647773;212;31510;-76
2022/05/29 11:07:29;;;;;;;0.70;0.50;;;9.30;1.40;;;10.06;100.00;94818.25;646089;216;31506;-74
2022/05/29 11:10:20;;;;;;;0.40;0.40;;;9.20;1.40;;;10.13;100.00;94821.05;637394;216;31725;-75
2022/05/29 11:13:23;;;;;;;0.80;0.60;;;9.20;1.40;;;10.16;100.00;94824.77;648962;216;31621;-75
2022/05/29 11:19:01;;;;;;;0.88;0.70;;;9.60;1.40;;;10.37;100.00;94830.56;644919;216;31880;-75
2022/05/29 11:21:48;;;;;;;0.80;0.30;;;9.60;1.40;;;9.95;100.00;94830.56;649522;216;31597;-76
2022/05/29 11:25:06;;;;;;;1.00;0.70;;;9.20;1.40;;;9.95;100.00;94827.52;648614;216;31605;-75
2022/05/29 11:28:19;;;;;;;0.50;0.50;;;9.20;1.40;;;9.56;100.00;94836.66;644491;212;31535;-76
2022/05/29 11:31:04;;;;;;;0.50;0.40;;;8.50;1.40;;;9.37;100.00;94832.07;625633;222;31842;-74
2022/05/29 11:36:15;;;;;;;1.50;0.80;;;8.20;1.40;;;9.15;100.00;94830.41;620069;226;42492;-74
2022/05/29 11:39:34;;;;;;;1.30;0.60;;;8.10;1.40;;;9.07;100.00;94829.56;647037;216;32024;-74
2022/05/29 11:42:26;;;;;;;0.80;0.77;;;8.00;1.40;;;9.14;100.00;94822.92;649375;216;31509;-76
2022/05/29 11:45:15;;;;;;;0.40;0.33;;;8.10;1.40;;;9.30;100.00;94820.30;619417;226;32435;-74
2022/05/29 11:56:15;;;;;;;0.70;0.30;;;8.60;1.40;;;9.76;100.00;94800.95;650170;216;31564;-73
2022/05/29 11:59:00;;;;;;;0.90;0.60;;;8.50;1.40;;;10.16;100.00;94797.94;645808;216;31476;-73
2022/05/29 12:01:41;;;;;;;0.60;0.50;;;8.80;1.40;;;10.53;100.00;94801.20;647227;216;31560;-74
2022/05/29 12:07:16;;;;;;;0.70;0.50;;;9.40;1.40;;;10.85;100.00;94800.05;618256;226;31840;-74
2022/05/29 12:10:01;;;;;;;0.90;0.50;;;9.10;1.40;;;11.24;100.00;94803.34;636669;216;31663;-74
2022/05/29 12:12:43;;;;;;;0.80;0.80;;;9.50;1.40;;;11.53;100.00;94803.27;647461;216;31523;-74
2022/05/29 12:15:25;;;;;;;1.07;0.77;;;10.00;1.40;;;11.47;100.00;94803.86;649815;216;42178;-74
2022/05/29 12:18:10;;;;;;;1.60;1.50;;;10.00;1.40;;;11.29;100.00;94797.41;646340;216;42132;-75
2022/05/29 12:20:54;;;;;;;3.23;1.17;;;9.80;1.40;;;11.93;100.00;94797.05;646378;216;31543;-75
2022/05/29 12:23:36;;;;;;;0.80;0.40;;;10.60;1.40;;;11.93;100.00;94802.22;646040;216;31665;-76
2022/05/29 12:26:19;;;;;;;0.90;0.50;;;10.80;1.40;;;12.43;100.00;94800.87;645372;216;31544;-75
2022/05/29 12:29:05;;;;;;;2.30;0.80;;;11.40;1.40;;;12.38;100.00;94807.39;649828;216;31819;-75
2022/05/29 12:31:49;;;;;;;0.40;0.40;;;11.30;1.40;;;12.22;100.00;94811.95;650466;216;31525;-76
2022/05/29 12:35:55;;;;;;;0.50;0.40;;;11.60;1.40;;;13.26;100.00;94800.38;650703;216;32664;-76
2022/05/29 12:39:00;;;;;;;0.68;0.43;;;12.70;1.40;;;14.91;100.00;94796.84;650875;216;40961;-81
2022/05/29 12:41:55;;;;;;;1.30;0.50;;;13.90;1.40;;;15.83;100.00;94797.13;642795;215;32004;-77
2022/05/29 12:44:47;;;;;;;0.80;0.50;;;14.30;1.40;;;16.14;100.00;94799.12;648390;216;34918;-76
2022/05/29 12:48:14;;;;;;;0.60;0.40;;;13.60;1.40;;;14.17;100.00;94796.55;647044;216;31500;-76
2022/05/29 12:50:56;;;;;;;0.43;0.40;;;12.50;1.40;;;12.77;100.00;94798.39;646901;216;31501;-75
2022/05/29 12:54:03;;;;;;;0.90;0.50;;;11.40;1.40;;;11.81;100.00;94800.02;616961;222;31959;-75
2022/05/29 12:57:35;;;;;;;0.60;0.50;;;11.00;1.40;;;11.68;100.00;94795.71;647378;216;31530;-75
2022/05/29 13:03:31;;;;;;;0.50;0.43;;;10.90;1.40;;;11.74;100.00;94802.06;644747;212;31499;-75
2022/05/29 13:06:26;;;;;;;0.80;0.43;;;10.90;1.40;;;11.09;100.00;94820.20;621866;226;32086;-75
2022/05/29 13:12:07;;;;;;;0.60;0.60;;;10.50;1.40;;;10.99;100.00;94812.23;649817;216;31470;-75
2022/05/29 13:17:24;;;;;;;0.40;0.40;;;10.60;1.40;;;11.56;100.00;94812.19;648148;216;31894;-76
2022/05/29 13:20:11;;;;;;;0.47;0.40;;;10.80;1.40;;;11.84;100.00;94811.70;616781;226;31827;-75
2022/05/29 13:23:00;;;;;;;0.60;0.40;;;11.10;1.40;;;12.12;100.00;94809.67;649460;212;31506;-75
2022/05/29 13:28:50;;;;;;;1.00;0.40;;;11.70;1.40;;;13.37;100.00;94799.30;645228;216;31523;-75
2022/05/29 13:31:31;;;;;;;1.50;0.45;;;12.10;1.40;;;13.04;100.00;94804.28;648753;216;33118;-75
2022/05/29 13:35:50;;;;;;;0.50;0.50;;;11.90;1.40;;;12.84;100.00;94799.03;645444;216;31507;-75
2022/05/29 13:39:00;;;;;;;1.30;0.30;;;12.00;1.40;;;13.61;100.00;94799.06;645138;216;41148;-75